Main page
METAR-TAF:

METAR-TAF

Airports :

Mannheim, Germany

Mannheim City Airport

latitude: 49-28-21N, longitude: 008-30-56E, elevation: 100 m

Current weather observation

The report was made 13 minutes ago, at 11:20 UTC
Wind 10 kt from the West, varying between South/Southwest and Northwest
Temperature 15°C
Humidity 41%
Pressure 1019 hPa
Visibility 10 km or more
no clouds below 1500 m and no cumulonimbus

METAR: EDFM 261120Z 26010KT 200V310 CAVOK 15/02 Q1019

Time: 13:33 (11:33 UTC)

Forecast

The report was made 3 hours and 33 minutes ago, at 08:00 UTC
Forecast valid from 26 at 09 UTC to 26 at 18 UTC
Wind 10 kt from the West
Visibility 10 km or more
Few clouds at a height of 3000 ft
Probability 30% :
Temporary
from 26 at 09 UTC to 26 at 15 UTC
Wind 15 kt from the West with gusts up to 25 kt

TAF: EDFM 260800Z 2609/2618 26010KT 9999 FEW030 PROB30 TEMPO 2609/2615 26015G25KT

Weather observations and forecasts of more than 4000 airports (METAR and TAF reports).

The available stations are represented by yellow and red dots on the map.

Hover mouse over dot to see the name of the station.

Then click to see weather observations and forecasts.

To change the map : click on the green buttons with a black cross to zoom in, on the green button with a dash to zoom out, or on the green arrows for adjacent maps.


METAR-TAF: